LRTR

Timişoara Traian Vuia Airport

Timişoara, Romania
TAF LRTR 232300Z 2400/2424 25012KT CAVOK TEMPO 2402/2409 28016G26KT 5000 -RA TEMPO 2409/2415 30025G35KT BECMG 2418/2420 33010KT
Issued Valid From Valid To
Oct-23 @ 23:00 UTC
(6 hours ago)
Oct-24 @ 00:00 UTC
(5 hours ago)
Oct-25 @ 00:00 UTC
(in 19 hours)
Oct-24 @ 00:00 to Oct-24 @ 18:00
TAF LRTR 232300Z 2400/2424 25012KT CAVOK
Wind Visibility Clouds Conditions
250° at 12 knots 10,000+ meters
  • No significant clouds
Temporary Oct-24 @ 02:00 to Oct-24 @ 09:00
TEMPO 2402/2409 28016G26KT 5000 -RA
Wind Visibility Conditions
280° at 16 knots
 Gusting to 26 knots
5,005 meters
  • Light Rain
Temporary Oct-24 @ 09:00 to Oct-24 @ 15:00
TEMPO 2409/2415 30025G35KT
Wind
300° at 25 knots
 Gusting to 35 knots
Becoming Oct-24 @ 18:00 to Oct-25 @ 00:00
BECMG 2418/2420 33010KT
Wind Visibility Clouds Conditions
330° at 10 knots 10,000+ meters
  • No significant clouds
TAF LRTR 232300Z 2400/2424 25012KT CAVOK TEMPO 2402/2409 28016G26KT 5000 -RA TEMPO 2409/2415 30025G35KT BECMG 2418/2420 33010KT
Issued Oct-23 @ 23:00 UTC
(6 hours ago)
Valid From Oct-24 @ 00:00 UTC
(5 hours ago)
Valid To Oct-25 @ 00:00 UTC
(in 19 hours)
Oct-24 @ 00:00 - Oct-24 @ 18:00
Wind Visibility
250° at 12 knots 10,000+ meters
Clouds
  • No significant clouds
Conditions
Temporary Oct-24 @ 02:00 - Oct-24 @ 09:00
Wind Visibility
280° at 16 knots
 Gusting to 26 knots
5,005 meters
Conditions
  • Light Rain
Temporary Oct-24 @ 09:00 - Oct-24 @ 15:00
Wind
300° at 25 knots
 Gusting to 35 knots
Becoming Oct-24 @ 18:00 - Oct-25 @ 00:00
Wind Visibility
330° at 10 knots 10,000+ meters
Clouds
  • No significant clouds
Conditions